Time;durP1;ratioP1;P1;durP2;ratioP2;P2;SDS_P1;SDS_P2;PMS_P1;PMS_P2;Temp;Humidity;BMP_temperature;BMP_pressure;BME280_temperature;BME280_humidity;BME280_pressure;Samples;Min_cycle;Max_cycle;Signal;HPM_P1;HPM_P2
2023/04/26 00:02:12;;;;;;;10.55;4.80;;;;;;;4.51;71.68;101630.41;3593947;39;20055;-67
2023/04/26 00:04:40;;;;;;;12.05;5.03;;;;;;;4.85;71.35;101685.50;3593890;39;20109;-67
2023/04/26 00:07:06;;;;;;;9.20;4.85;;;;;;;4.84;71.17;101689.09;3595256;39;20056;-67
2023/04/26 00:09:32;;;;;;;12.43;5.22;;;;;;;4.40;72.02;101622.66;3584383;39;20066;-67
2023/04/26 00:11:58;;;;;;;11.57;5.13;;;;;;;4.78;71.84;101692.75;3594390;39;20107;-67
2023/04/26 00:14:25;;;;;;;8.68;5.00;;;;;;;4.07;72.34;101575.56;3596596;39;20368;-67
2023/04/26 00:16:50;;;;;;;9.80;5.45;;;;;;;4.70;72.26;101691.22;3593112;39;20303;-67
2023/04/26 00:19:17;;;;;;;11.75;5.43;;;;;;;4.71;72.55;101691.16;3592624;39;21272;-67
2023/04/26 00:21:42;;;;;;;11.40;5.65;;;;;;;4.69;72.67;101694.78;3594993;39;20059;-67
2023/04/26 00:24:08;;;;;;;18.67;5.95;;;;;;;4.64;72.59;101695.78;3593060;39;20058;-67
2023/04/26 00:26:34;;;;;;;11.55;4.78;;;;;;;4.63;72.70;101698.44;3595757;39;20274;-67
2023/04/26 00:29:02;;;;;;;13.70;5.55;;;;;;;4.60;72.13;101691.44;3588772;39;20209;-67
2023/04/26 00:31:28;;;;;;;14.43;5.78;;;;;;;4.53;72.32;101689.78;3594803;39;20060;-67
2023/04/26 00:33:53;;;;;;;11.80;5.43;;;;;;;4.49;72.90;101696.13;3596499;39;20063;-67
2023/04/26 00:36:19;;;;;;;11.25;5.70;;;;;;;4.47;72.86;101694.38;3592910;39;20071;-67
2023/04/26 00:38:45;;;;;;;13.43;6.32;;;;;;;4.43;73.93;101690.94;3596116;39;20293;-67
2023/04/26 00:41:11;;;;;;;10.70;5.00;;;;;;;4.41;73.75;101693.63;3596129;39;20087;-67
2023/04/26 00:43:38;;;;;;;9.48;5.28;;;;;;;4.40;73.46;101686.53;3591329;39;20137;-67
2023/04/26 00:46:05;;;;;;;11.63;5.40;;;;;;;4.31;73.34;101677.88;3595911;39;20426;-67
2023/04/26 00:48:32;;;;;;;11.10;5.50;;;;;;;4.31;74.00;101697.38;3596300;39;20058;-67
2023/04/26 00:51:00;;;;;;;12.20;5.78;;;;;;;4.26;73.80;101693.97;3593905;39;20067;-67
2023/04/26 00:53:26;;;;;;;11.85;5.85;;;;;;;4.22;75.08;101686.06;3596722;39;20433;-67
2023/04/26 00:55:53;;;;;;;11.68;5.95;;;;;;;4.17;75.43;101695.03;3592152;39;20334;-67
2023/04/26 00:58:19;;;;;;;14.38;5.60;;;;;;;4.14;75.08;101688.91;3592520;39;20068;-67
2023/04/26 01:00:45;;;;;;;10.45;5.43;;;;;;;3.98;75.12;101661.75;3594819;39;20092;-66
2023/04/26 01:03:11;;;;;;;14.00;5.80;;;;;;;4.09;74.70;101693.44;3594456;39;20052;-67
2023/04/26 01:05:39;;;;;;;8.98;5.65;;;;;;;4.05;75.11;101691.75;3594261;39;20123;-67
2023/04/26 01:08:05;;;;;;;11.57;5.43;;;;;;;4.06;75.61;101693.50;3591861;39;20060;-67
2023/04/26 01:10:35;;;;;;;11.57;5.80;;;;;;;4.06;75.55;101685.53;3593882;39;20055;-67
2023/04/26 01:13:02;;;;;;;10.80;5.25;;;;;;;4.06;75.38;101693.50;3595018;39;20083;-67
2023/04/26 01:15:29;;;;;;;11.98;5.20;;;;;;;4.06;74.64;101690.84;3594471;39;20060;-67
2023/04/26 01:17:56;;;;;;;10.00;5.30;;;;;;;4.05;74.80;101695.28;3584875;39;20058;-67
2023/04/26 01:20:23;;;;;;;8.68;5.75;;;;;;;4.04;74.67;101690.03;3597190;39;20061;-67
2023/04/26 01:22:48;;;;;;;14.45;5.82;;;;;;;3.99;74.38;101684.78;3595591;39;20124;-67
2023/04/26 01:25:16;;;;;;;8.07;5.65;;;;;;;3.95;74.94;101689.28;3593864;39;20123;-66
2023/04/26 01:27:41;;;;;;;12.15;6.32;;;;;;;3.92;74.73;101689.34;3594786;39;20051;-67
2023/04/26 01:30:08;;;;;;;13.27;6.10;;;;;;;3.89;74.91;101692.06;3594001;39;20058;-67
2023/04/26 01:32:34;;;;;;;11.20;5.95;;;;;;;3.85;74.06;101695.72;3597338;39;20048;-67
2023/04/26 01:35:01;;;;;;;12.60;6.45;;;;;;;3.83;74.05;101705.50;3595333;39;20063;-67
2023/04/26 01:37:26;;;;;;;12.23;6.07;;;;;;;3.71;73.27;101706.63;3597088;39;20271;-67
2023/04/26 01:39:52;;;;;;;10.57;5.70;;;;;;;3.72;74.29;101702.19;3596054;39;20062;-67
2023/04/26 01:42:18;;;;;;;14.88;6.35;;;;;;;3.69;73.84;101711.09;3586486;39;20067;-67
2023/04/26 01:44:43;;;;;;;10.15;5.78;;;;;;;3.68;74.54;101697.84;3594434;39;20056;-67
2023/04/26 01:47:09;;;;;;;12.10;5.95;;;;;;;3.66;74.19;101702.28;3594265;39;20378;-68
2023/04/26 01:49:35;;;;;;;13.10;5.55;;;;;;;3.67;74.21;101699.59;3586463;39;20063;-67
2023/04/26 01:52:01;;;;;;;11.43;5.57;;;;;;;3.43;74.24;101669.06;3593130;39;20052;-67
2023/04/26 01:54:27;;;;;;;9.32;5.53;;;;;;;3.64;74.68;101698.78;3593697;39;20372;-67
2023/04/26 01:56:52;;;;;;;12.63;6.30;;;;;;;3.62;73.92;101695.28;3593032;39;20062;-66
2023/04/26 01:59:18;;;;;;;9.50;6.25;;;;;;;3.56;74.01;101695.41;3586551;39;20068;-66
2023/04/26 02:01:44;;;;;;;10.65;5.82;;;;;;;3.55;74.91;101693.63;3597932;39;20115;-66
2023/04/26 02:04:10;;;;;;;16.90;7.10;;;;;;;3.55;74.47;101693.63;3594482;39;20055;-67
2023/04/26 02:06:36;;;;;;;11.35;6.30;;;;;;;3.49;73.63;101692.88;3598086;39;20071;-66
2023/04/26 02:09:03;;;;;;;10.73;6.13;;;;;;;2.78;74.06;101572.84;3595998;39;20056;-67
2023/04/26 02:11:29;;;;;;;13.02;5.88;;;;;;;3.46;75.37;101695.56;3595870;39;20060;-67
2023/04/26 02:13:55;;;;;;;13.20;6.05;;;;;;;3.43;74.63;101697.41;3595719;39;20056;-67
2023/04/26 02:16:21;;;;;;;15.82;6.03;;;;;;;2.79;75.15;101604.69;3596257;39;20173;-67
2023/04/26 02:18:48;;;;;;;12.57;6.07;;;;;;;3.35;75.25;101702.84;3586779;39;20059;-67
2023/04/26 02:21:17;;;;;;;13.85;6.20;;;;;;;3.32;74.50;101686.97;3593364;39;20066;-67
2023/04/26 02:23:42;;;;;;;11.10;5.95;;;;;;;3.32;74.43;101688.75;3592598;39;20149;-67
2023/04/26 02:26:08;;;;;;;15.30;6.45;;;;;;;3.31;74.21;101695.84;3592762;39;20067;-67
2023/04/26 02:28:34;;;;;;;17.75;6.70;;;;;;;2.64;75.00;101589.00;3596288;39;20063;-67
2023/04/26 02:31:02;;;;;;;11.10;6.18;;;;;;;3.23;75.40;101685.34;3596434;39;20051;-67
2023/04/26 02:33:27;;;;;;;17.65;6.55;;;;;;;3.24;75.62;101694.22;3593814;39;20052;-67
2023/04/26 02:35:53;;;;;;;15.30;6.85;;;;;;;3.20;75.56;101692.50;3594193;39;20060;-67
2023/04/26 02:38:19;;;;;;;18.02;7.32;;;;;;;3.19;75.86;101696.06;3588842;39;20059;-67
2023/04/26 02:40:44;;;;;;;11.43;6.03;;;;;;;3.11;75.98;101690.00;3593629;39;20054;-67
2023/04/26 02:43:10;;;;;;;20.13;7.18;;;;;;;3.12;76.14;101689.97;3592319;39;20074;-67
2023/04/26 02:45:42;;;;;;;14.75;6.80;;;;;;;3.11;75.05;101688.25;3587113;39;20055;-67
2023/04/26 02:48:08;;;;;;;14.07;6.38;;;;;;;2.47;76.12;101586.59;3586801;39;20129;-66
2023/04/26 02:50:35;;;;;;;17.05;6.30;;;;;;;3.12;75.73;101691.75;3592407;39;20100;-67
2023/04/26 02:53:02;;;;;;;13.15;6.13;;;;;;;2.26;75.13;101545.41;3593748;39;20371;-67
2023/04/26 02:55:28;;;;;;;13.55;6.20;;;;;;;2.66;74.90;101600.47;3594645;39;20051;-67
2023/04/26 02:57:53;;;;;;;13.48;6.80;;;;;;;2.25;75.44;101543.66;3593456;39;20048;-67
2023/04/26 03:00:19;;;;;;;16.13;6.35;;;;;;;3.12;74.98;101686.44;3583238;39;20044;-67
2023/04/26 03:02:45;;;;;;;21.30;7.60;;;;;;;3.08;75.75;101682.97;3595023;39;20052;-66
2023/04/26 03:05:10;;;;;;;16.05;7.10;;;;;;;3.06;75.98;101674.16;3591792;39;20052;-67
2023/04/26 03:07:36;;;;;;;17.45;6.45;;;;;;;3.03;75.94;101675.06;3593380;39;20059;-67
2023/04/26 03:10:03;;;;;;;12.70;6.63;;;;;;;3.02;76.03;101677.75;3595806;39;20058;-66
2023/04/26 03:12:29;;;;;;;14.48;5.88;;;;;;;3.00;75.90;101677.78;3594264;39;20318;-67
2023/04/26 03:14:55;;;;;;;14.60;6.47;;;;;;;3.03;76.47;101680.38;3585210;39;20377;-66
2023/04/26 03:17:20;;;;;;;16.75;6.63;;;;;;;3.01;75.35;101671.59;3592957;39;20050;-66
2023/04/26 03:19:46;;;;;;;11.90;6.55;;;;;;;2.47;76.35;101583.09;3596049;39;20082;-66
2023/04/26 03:22:14;;;;;;;16.60;6.70;;;;;;;3.05;76.22;101682.16;3596560;39;20063;-66
2023/04/26 03:24:42;;;;;;;15.07;6.93;;;;;;;3.05;75.18;101679.50;3592185;39;20055;-69
2023/04/26 03:27:08;;;;;;;11.77;6.40;;;;;;;2.43;75.46;101574.31;3594482;39;20051;-67
2023/04/26 03:29:33;;;;;;;15.98;6.72;;;;;;;2.99;74.39;101672.50;3594985;39;20056;-67
2023/04/26 03:31:59;;;;;;;19.00;6.72;;;;;;;2.25;75.42;101550.72;3587236;39;20056;-67
2023/04/26 03:34:26;;;;;;;17.67;7.50;;;;;;;2.97;76.54;101664.53;3592269;39;20382;-67
2023/04/26 03:36:51;;;;;;;16.92;7.38;;;;;;;2.94;75.76;101667.25;3586697;39;20043;-66
2023/04/26 03:39:17;;;;;;;15.68;6.80;;;;;;;2.05;76.13;101517.44;3591984;39;20047;-67
2023/04/26 03:41:43;;;;;;;12.63;6.90;;;;;;;2.90;75.62;101662.91;3593515;39;20074;-67
2023/04/26 03:44:08;;;;;;;14.60;6.80;;;;;;;2.90;76.32;101670.00;3592726;39;20063;-67
2023/04/26 03:46:34;;;;;;;14.63;7.45;;;;;;;2.88;76.00;101669.13;3595488;39;20055;-67
2023/04/26 03:49:00;;;;;;;13.13;7.00;;;;;;;2.85;75.90;101664.75;3593370;39;20059;-66
2023/04/26 03:51:27;;;;;;;12.27;6.68;;;;;;;2.84;76.01;101665.66;3592181;39;20056;-67
2023/04/26 03:53:53;;;;;;;14.13;6.15;;;;;;;2.21;75.62;101570.25;3592481;39;20076;-65
2023/04/26 03:56:18;;;;;;;12.15;6.75;;;;;;;2.75;76.84;101684.38;3592480;39;20095;-67
2023/04/26 03:58:45;;;;;;;12.10;7.15;;;;;;;2.76;77.20;101678.19;3593141;39;20059;-67
2023/04/26 04:01:11;;;;;;;11.68;6.63;;;;;;;1.92;75.86;101531.78;3592409;39;20062;-68
2023/04/26 04:03:37;;;;;;;17.38;7.85;;;;;;;2.72;76.49;101669.38;3593603;39;20593;-67
2023/04/26 04:06:03;;;;;;;13.73;7.53;;;;;;;2.74;76.86;101677.34;3595925;39;20385;-67
2023/04/26 04:08:28;;;;;;;12.52;7.45;;;;;;;2.78;77.40;101673.72;3583908;39;20078;-66
2023/04/26 04:10:55;;;;;;;13.50;7.93;;;;;;;2.82;76.60;101670.09;3597681;39;20059;-67
2023/04/26 04:13:21;;;;;;;13.55;7.35;;;;;;;2.83;77.08;101668.34;3593620;39;20055;-66
2023/04/26 04:15:47;;;;;;;13.05;6.78;;;;;;;2.84;76.71;101667.44;3595774;39;20055;-67
2023/04/26 04:18:12;;;;;;;13.07;7.28;;;;;;;2.85;75.29;101671.84;3594364;39;20313;-67
2023/04/26 04:20:40;;;;;;;13.13;6.75;;;;;;;2.85;75.49;101666.53;3592296;39;20075;-67
2023/04/26 04:23:06;;;;;;;11.80;7.10;;;;;;;2.87;75.94;101668.25;3584277;39;20047;-67
2023/04/26 04:25:33;;;;;;;12.85;7.53;;;;;;;2.85;74.66;101670.06;3593975;39;20051;-67
2023/04/26 04:28:00;;;;;;;14.82;8.55;;;;;;;2.21;76.36;101565.81;3593188;39;20054;-67
2023/04/26 04:30:28;;;;;;;15.95;7.75;;;;;;;1.95;75.77;101529.09;3595249;39;20104;-67
2023/04/26 04:32:54;;;;;;;15.70;8.25;;;;;;;2.80;76.62;101677.25;3594626;39;20070;-67
2023/04/26 04:35:21;;;;;;;13.23;7.75;;;;;;;2.81;76.66;101673.66;3592672;39;20112;-67
2023/04/26 04:37:48;;;;;;;16.45;8.25;;;;;;;2.78;76.30;101673.72;3594374;39;20048;-67
2023/04/26 04:40:14;;;;;;;15.45;7.53;;;;;;;2.81;76.46;101676.31;3591301;39;20069;-67
2023/04/26 04:42:43;;;;;;;16.45;7.50;;;;;;;2.81;75.50;101678.97;3591576;39;20060;-67
2023/04/26 04:45:09;;;;;;;15.05;8.02;;;;;;;2.79;76.24;101687.00;3595893;39;20087;-67
2023/04/26 04:47:36;;;;;;;17.33;8.52;;;;;;;2.79;76.85;101680.78;3595220;39;20060;-67
2023/04/26 04:50:07;;;;;;;15.45;8.63;;;;;;;2.79;76.46;101689.63;3594564;39;20052;-66
2023/04/26 04:52:33;;;;;;;16.58;8.93;;;;;;;2.84;76.92;101688.69;3596644;39;20058;-67
2023/04/26 04:55:00;;;;;;;15.20;9.02;;;;;;;2.88;76.66;101699.22;3595552;39;20059;-67
2023/04/26 04:57:26;;;;;;;15.38;8.68;;;;;;;2.94;76.82;101701.78;3595231;39;20059;-67
2023/04/26 04:59:52;;;;;;;16.92;9.10;;;;;;;3.01;77.78;101687.50;3595779;39;20073;-67
2023/04/26 05:02:17;;;;;;;16.58;9.10;;;;;;;3.09;76.95;101699.78;3594745;39;20394;-67
2023/04/26 05:04:43;;;;;;;13.75;8.73;;;;;;;3.20;77.12;101697.81;3597109;39;20108;-67
2023/04/26 05:07:09;;;;;;;16.02;9.02;;;;;;;3.27;76.56;101699.47;3596021;39;20071;-67
2023/04/26 05:09:35;;;;;;;15.07;9.18;;;;;;;3.40;76.82;101698.34;3589518;39;20087;-67
2023/04/26 05:12:01;;;;;;;17.52;9.35;;;;;;;2.82;76.32;101569.22;3598616;39;20378;-67
2023/04/26 05:14:29;;;;;;;15.35;9.35;;;;;;;3.68;75.82;101692.53;3586573;39;20075;-66
2023/04/26 05:16:54;;;;;;;19.20;9.57;;;;;;;3.82;76.29;101687.78;3597232;39;20297;-67
2023/04/26 05:19:20;;;;;;;18.08;9.90;;;;;;;3.89;75.32;101675.25;3597858;39;20101;-66
2023/04/26 05:21:46;;;;;;;17.23;8.98;;;;;;;4.22;75.11;101692.28;3594427;39;21267;-67
2023/04/26 05:24:11;;;;;;;14.88;8.82;;;;;;;4.35;73.82;101688.44;3588682;39;20881;-67
2023/04/26 05:26:37;;;;;;;16.73;8.88;;;;;;;4.48;72.29;101693.50;3593947;39;20058;-67
2023/04/26 05:29:02;;;;;;;15.90;8.50;;;;;;;4.52;72.12;101701.38;3594849;39;20066;-67
2023/04/26 05:31:28;;;;;;;17.98;9.40;;;;;;;4.53;71.84;101691.59;3592878;39;20063;-67
2023/04/26 05:33:54;;;;;;;23.30;9.57;;;;;;;3.77;72.02;101570.00;3588148;39;20055;-67
2023/04/26 05:36:20;;;;;;;13.98;8.95;;;;;;;4.57;72.83;101698.63;3593135;39;20063;-67
2023/04/26 05:38:45;;;;;;;13.82;8.70;;;;;;;4.55;72.76;101690.66;3591431;39;20125;-67
2023/04/26 05:41:11;;;;;;;14.90;9.98;;;;;;;4.63;73.58;101701.09;3592999;39;20353;-66
2023/04/26 05:43:37;;;;;;;17.23;9.90;;;;;;;4.66;73.32;101698.38;3593764;39;20405;-67
2023/04/26 05:46:02;;;;;;;20.45;10.38;;;;;;;4.74;72.96;101704.41;3594843;39;20062;-66
2023/04/26 05:48:28;;;;;;;14.20;9.35;;;;;;;4.77;73.33;101693.69;3583982;39;20314;-67
2023/04/26 05:50:55;;;;;;;17.65;9.32;;;;;;;4.85;73.33;101699.72;3594257;39;20052;-66
2023/04/26 05:53:21;;;;;;;16.67;10.05;;;;;;;4.93;72.63;101694.19;3594302;39;20051;-67
2023/04/26 05:55:46;;;;;;;16.65;10.40;;;;;;;5.01;73.54;101708.22;3594043;39;20298;-67
2023/04/26 05:58:12;;;;;;;18.05;9.50;;;;;;;5.09;73.58;101697.34;3594814;39;20063;-66
2023/04/26 06:00:38;;;;;;;14.30;9.50;;;;;;;5.20;73.92;101687.31;3592100;39;20071;-65
2023/04/26 06:03:04;;;;;;;18.92;10.00;;;;;;;5.39;73.94;101694.81;3591887;39;20092;-66
2023/04/26 06:05:31;;;;;;;20.25;9.45;;;;;;;5.45;72.77;101683.97;3594210;39;20063;-66
2023/04/26 06:07:56;;;;;;;15.70;9.65;;;;;;;5.62;71.85;101699.53;3595005;39;20078;-66
2023/04/26 06:10:23;;;;;;;13.95;9.25;;;;;;;5.74;71.65;101697.41;3594365;39;20379;-66
2023/04/26 06:12:48;;;;;;;16.23;9.75;;;;;;;5.88;71.58;101699.69;3593821;39;20088;-67
2023/04/26 06:15:15;;;;;;;15.10;9.63;;;;;;;6.05;71.77;101712.56;3592312;39;20338;-67
2023/04/26 06:17:41;;;;;;;14.57;8.65;;;;;;;6.17;70.43;101709.53;3594461;39;20059;-68
2023/04/26 06:20:08;;;;;;;17.70;9.57;;;;;;;5.67;69.49;101614.91;3591975;39;20083;-68
2023/04/26 06:22:35;;;;;;;16.90;9.50;;;;;;;6.38;68.86;101720.53;3593473;39;20303;-68
2023/04/26 06:25:00;;;;;;;17.98;9.82;;;;;;;6.50;68.84;101720.13;3590675;39;20120;-68
2023/04/26 06:27:26;;;;;;;20.48;10.13;;;;;;;6.62;68.69;101719.75;3592980;39;20086;-68
2023/04/26 06:29:52;;;;;;;14.45;9.13;;;;;;;6.74;68.83;101719.38;3593542;39;20061;-68
2023/04/26 06:32:17;;;;;;;19.27;9.68;;;;;;;6.85;68.70;101727.06;3593339;39;20118;-68
2023/04/26 06:34:44;;;;;;;16.33;8.73;;;;;;;6.93;68.39;101725.00;3591512;39;20063;-69
2023/04/26 06:37:10;;;;;;;18.52;9.82;;;;;;;7.00;68.74;101717.66;3592291;39;20058;-69
2023/04/26 06:39:39;;;;;;;18.42;9.43;;;;;;;7.27;68.80;101728.38;3592726;39;20040;-67
2023/04/26 06:42:05;;;;;;;17.15;9.73;;;;;;;7.52;68.74;101723.09;3593352;39;20052;-69
2023/04/26 06:44:31;;;;;;;16.27;8.88;;;;;;;7.68;66.94;101730.50;3595123;39;20074;-68
2023/04/26 06:46:57;;;;;;;11.48;8.30;;;;;;;7.82;66.06;101737.16;3598043;39;20058;-68
2023/04/26 06:49:24;;;;;;;12.07;7.30;;;;;;;7.85;64.70;101732.56;3597011;39;20055;-69
2023/04/26 06:51:51;;;;;;;16.08;8.15;;;;;;;7.91;64.92;101732.34;3600552;39;20095;-68
2023/04/26 06:54:18;;;;;;;13.18;7.10;;;;;;;7.92;64.08;101733.22;3594611;39;20048;-69
2023/04/26 06:56:44;;;;;;;11.10;7.85;;;;;;;7.99;64.43;101739.22;3589205;39;20364;-67
2023/04/26 06:59:10;;;;;;;13.32;7.97;;;;;;;8.07;65.64;101727.31;3595106;39;20105;-69
2023/04/26 07:01:36;;;;;;;12.85;7.60;;;;;;;8.14;64.94;101733.31;3595104;39;20386;-70
2023/04/26 07:04:06;;;;;;;13.57;7.68;;;;;;;8.21;64.46;101733.94;3597619;39;20059;-69
2023/04/26 07:06:32;;;;;;;8.50;6.53;;;;;;;7.52;63.76;101605.38;3589861;39;20054;-68
2023/04/26 07:09:01;;;;;;;13.88;6.72;;;;;;;7.75;63.77;101629.47;3595029;39;20048;-68
2023/04/26 07:11:27;;;;;;;11.50;6.82;;;;;;;8.48;63.55;101738.31;3594867;39;20118;-69
2023/04/26 07:13:52;;;;;;;12.15;6.43;;;;;;;8.55;63.00;101739.81;3595454;39;20063;-69
2023/04/26 07:16:18;;;;;;;11.25;5.53;;;;;;;8.57;61.93;101740.63;3596125;39;20062;-69
2023/04/26 07:18:44;;;;;;;11.23;5.80;;;;;;;8.61;62.29;101744.06;3592793;39;20059;-69
2023/04/26 07:21:09;;;;;;;17.38;6.05;;;;;;;8.73;61.86;101746.28;3592859;39;20063;-69
2023/04/26 07:23:35;;;;;;;10.65;5.40;;;;;;;8.87;62.32;101751.06;3590997;39;20059;-69
2023/04/26 07:26:03;;;;;;;12.55;5.50;;;;;;;8.27;61.30;101618.53;3592538;39;20072;-69
2023/04/26 07:28:30;;;;;;;11.95;5.88;;;;;;;8.96;61.17;101713.16;3591719;39;20121;-69
2023/04/26 07:30:57;;;;;;;7.72;5.00;;;;;;;9.22;59.26;101746.94;3591592;39;20047;-69
2023/04/26 07:33:22;;;;;;;7.13;4.07;;;;;;;9.00;57.96;101692.44;3593379;39;20112;-69
2023/04/26 07:35:56;;;;;;;10.38;4.70;;;;;;;9.33;58.41;101738.47;3594481;39;20063;-69
2023/04/26 07:38:23;;;;;;;10.20;4.55;;;;;;;9.45;58.34;101729.91;3592271;39;20468;-69
2023/04/26 07:40:50;;;;;;;10.18;4.78;;;;;;;9.65;57.89;101733.53;3592030;39;20055;-69
2023/04/26 07:43:17;;;;;;;11.45;4.30;;;;;;;9.88;57.11;101730.72;3596576;39;20120;-69
2023/04/26 07:45:42;;;;;;;7.50;3.25;;;;;;;10.03;55.26;101722.94;3592295;39;20055;-69
2023/04/26 07:48:08;;;;;;;7.78;3.15;;;;;;;10.27;52.98;101731.69;3591940;39;20056;-69
2023/04/26 07:50:34;;;;;;;6.65;3.80;;;;;;;10.35;55.12;101722.34;3590552;39;20084;-69
2023/04/26 07:52:59;;;;;;;7.05;3.08;;;;;;;9.76;52.76;101631.91;3591975;39;20067;-68
2023/04/26 07:55:26;;;;;;;10.80;3.65;;;;;;;10.27;52.74;101737.94;3587308;39;20075;-69
2023/04/26 07:57:51;;;;;;;6.88;3.30;;;;;;;10.19;52.46;101716.78;3590975;39;20076;-69
2023/04/26 08:00:18;;;;;;;7.38;3.13;;;;;;;10.36;52.59;101736.66;3590982;39;20058;-69
2023/04/26 08:02:45;;;;;;;6.18;3.00;;;;;;;10.33;52.82;101726.91;3594631;39;20307;-69
2023/04/26 08:05:12;;;;;;;5.78;2.58;;;;;;;10.31;51.17;101731.50;3593152;39;20059;-69
2023/04/26 08:07:38;;;;;;;5.28;2.78;;;;;;;10.32;51.81;101748.50;3591998;39;20420;-69
2023/04/26 08:10:05;;;;;;;7.95;3.05;;;;;;;10.06;52.13;101685.19;3591800;39;20139;-69
2023/04/26 08:12:32;;;;;;;6.22;3.30;;;;;;;10.47;52.88;101746.91;3591487;39;20043;-70
2023/04/26 08:15:03;;;;;;;8.70;3.00;;;;;;;10.67;51.94;101757.59;3592035;39;20071;-70
2023/04/26 08:17:31;;;;;;;10.85;3.42;;;;;;;10.16;50.92;101630.06;3590739;39;20100;-69
2023/04/26 08:19:57;;;;;;;5.55;2.88;;;;;;;11.05;50.29;101744.97;3591796;39;20125;-69
2023/04/26 08:22:23;;;;;;;7.20;2.65;;;;;;;11.12;48.82;101742.84;3595461;39;20131;-69
2023/04/26 08:24:54;;;;;;;3.90;1.77;;;;;;;11.10;46.41;101755.50;3597448;39;20090;-69
2023/04/26 08:27:21;;;;;;;5.10;1.92;;;;;;;11.07;46.35;101739.53;3587253;39;20356;-69
2023/04/26 08:29:47;;;;;;;4.47;2.45;;;;;;;11.04;47.49;101740.56;3592838;39;20093;-69
2023/04/26 08:32:13;;;;;;;8.02;3.00;;;;;;;10.29;48.32;101622.31;3592937;39;20066;-69
2023/04/26 08:34:39;;;;;;;5.72;3.05;;;;;;;10.26;49.71;101634.09;3593609;39;20260;-69
2023/04/26 08:37:06;;;;;;;4.32;1.77;;;;;;;10.95;48.19;101748.22;3593978;39;20087;-69
2023/04/26 08:39:32;;;;;;;6.72;1.67;;;;;;;10.93;47.18;101745.59;3584841;39;20051;-68
2023/04/26 08:42:13;;;;;;;3.72;1.48;;;;;;;10.87;45.81;101746.75;3596086;39;20074;-69
2023/04/26 08:44:42;;;;;;;4.57;1.88;;;;;;;10.85;46.60;101742.41;3593600;39;20071;-69
2023/04/26 08:47:18;;;;;;;8.07;1.85;;;;;;;10.81;45.60;101740.78;3594395;39;20060;-69
2023/04/26 08:49:51;;;;;;;5.32;2.10;;;;;;;10.72;45.93;101741.22;3594406;39;20067;-69
2023/04/26 08:52:22;;;;;;;8.20;2.00;;;;;;;10.61;45.74;101742.63;3596865;39;20064;-69
2023/04/26 08:54:50;;;;;;;4.50;1.90;;;;;;;10.51;46.36;101733.25;3595063;39;20067;-69
2023/04/26 08:57:17;;;;;;;5.00;2.40;;;;;;;10.42;47.11;101737.22;3593808;39;20055;-69
2023/04/26 08:59:43;;;;;;;6.45;2.33;;;;;;;10.34;48.01;101736.72;3594222;39;20060;-69
2023/04/26 09:02:20;;;;;;;6.47;1.88;;;;;;;10.35;47.85;101740.28;3593115;39;20056;-69
2023/04/26 09:04:47;;;;;;;8.15;2.40;;;;;;;10.38;45.51;101735.63;3594667;39;20047;-72
2023/04/26 09:07:47;;;;;;;4.55;1.45;;;;;;;10.85;46.46;101740.59;3593528;39;20413;-69
2023/04/26 09:10:21;;;;;;;10.48;2.85;;;;;;;11.21;46.96;101720.88;3587796;39;20060;-69
2023/04/26 09:12:53;;;;;;;4.20;2.17;;;;;;;11.74;45.35;101730.72;3594276;39;20063;-69
2023/04/26 09:15:22;;;;;;;3.72;2.42;;;;;;;12.17;46.39;101725.75;3594175;39;20051;-68
2023/04/26 09:17:50;;;;;;;7.30;2.17;;;;;;;12.75;43.47;101729.78;3593609;39;20052;-69
2023/04/26 09:20:27;;;;;;;8.05;2.30;;;;;;;12.93;40.61;101723.31;3596223;39;20048;-69
2023/04/26 09:23:03;;;;;;;3.58;2.10;;;;;;;12.88;41.32;101720.03;3597228;39;20098;-69
2023/04/26 09:25:31;;;;;;;7.15;2.28;;;;;;;13.12;41.80;101720.44;3592664;39;20068;-69
2023/04/26 09:27:58;;;;;;;4.45;1.80;;;;;;;13.10;40.69;101719.66;3596204;39;20366;-72
2023/04/26 09:30:26;;;;;;;3.80;1.80;;;;;;;12.98;40.68;101720.38;3595816;39;20067;-69
2023/04/26 09:33:03;;;;;;;4.03;1.85;;;;;;;12.30;40.03;101646.00;3598497;39;20054;-69
2023/04/26 09:35:43;;;;;;;4.82;1.73;;;;;;;12.62;40.01;101723.31;3596066;39;20063;-69
2023/04/26 09:38:11;;;;;;;6.88;1.90;;;;;;;12.46;40.34;101728.69;3593440;39;20063;-68
2023/04/26 09:40:42;;;;;;;1.90;1.35;;;;;;;12.30;38.68;101718.78;3594639;39;20062;-70
2023/04/26 09:43:21;;;;;;;6.63;1.63;;;;;;;12.29;40.02;101726.94;3595016;39;20383;-68
2023/04/26 09:45:56;;;;;;;3.28;1.80;;;;;;;12.25;40.82;101717.28;3595856;39;20055;-69
2023/04/26 09:48:33;;;;;;;7.15;2.15;;;;;;;12.36;41.47;101727.47;3595423;39;20059;-69
2023/04/26 09:51:13;;;;;;;4.28;2.10;;;;;;;12.39;40.72;101717.38;3594813;39;20040;-70
2023/04/26 09:53:48;;;;;;;3.45;2.00;;;;;;;12.45;41.79;101735.06;3592923;39;20148;-69
2023/04/26 09:56:19;;;;;;;2.58;1.75;;;;;;;12.56;40.04;101719.16;3594624;39;20052;-68
2023/04/26 09:59:04;;;;;;;6.90;2.20;;;;;;;12.65;40.60;101710.53;3597185;39;20100;-68
2023/04/26 10:01:30;;;;;;;5.50;2.50;;;;;;;11.81;40.01;101537.31;3595727;39;20044;-68
2023/04/26 10:03:59;;;;;;;6.80;2.30;;;;;;;12.90;39.01;101718.09;3596698;39;20305;-69
2023/04/26 10:06:27;;;;;;;3.75;2.03;;;;;;;12.84;38.80;101720.28;3593230;39;20051;-69
2023/04/26 10:08:54;;;;;;;3.83;2.47;;;;;;;12.77;40.57;101712.53;3593553;39;20055;-68
2023/04/26 10:11:22;;;;;;;4.85;1.95;;;;;;;12.66;39.98;101706.88;3596739;39;20051;-68
2023/04/26 10:13:50;;;;;;;6.00;2.30;;;;;;;12.72;40.85;101720.03;3598441;39;20056;-68
2023/04/26 10:16:16;;;;;;;8.02;2.38;;;;;;;12.68;41.29;101723.84;3593802;39;20109;-68
2023/04/26 10:18:41;;;;;;;6.20;2.65;;;;;;;12.61;41.55;101722.44;3594582;39;20051;-69
2023/04/26 10:21:27;;;;;;;5.40;2.25;;;;;;;12.52;41.11;101715.72;3593674;39;20067;-68
2023/04/26 10:23:53;;;;;;;4.82;2.38;;;;;;;12.41;40.87;101703.81;3593651;39;20406;-69
2023/04/26 10:26:51;;;;;;;8.68;2.78;;;;;;;12.28;41.03;101712.59;3592501;39;20483;-68
2023/04/26 10:29:19;;;;;;;4.00;2.20;;;;;;;12.16;41.20;101699.78;3593737;39;20047;-68
2023/04/26 10:32:05;;;;;;;3.85;2.60;;;;;;;12.19;43.11;101718.47;3594203;39;20422;-69
2023/04/26 10:34:33;;;;;;;7.07;3.28;;;;;;;12.12;42.41;101709.00;3596652;39;20047;-68
2023/04/26 10:37:09;;;;;;;6.63;2.88;;;;;;;12.12;43.07;101714.38;3598903;39;20060;-68
2023/04/26 10:39:37;;;;;;;5.40;3.10;;;;;;;12.12;43.12;101718.91;3595691;39;20067;-68
2023/04/26 10:42:31;;;;;;;7.47;3.20;;;;;;;11.99;43.47;101707.91;3602265;39;20051;-69
2023/04/26 10:44:58;;;;;;;;;;;;;;;11.99;42.79;101702.53;3600103;39;20094;-69
2023/04/26 10:47:31;;;;;;;5.72;3.03;;;;;;;11.93;43.65;101681.31;3594372;39;20038;-68
2023/04/26 10:50:08;;;;;;;6.97;3.13;;;;;;;11.66;43.98;101635.97;3598913;39;20090;-68
2023/04/26 10:52:37;;;;;;;6.93;3.17;;;;;;;12.05;44.17;101704.88;3595392;39;21074;-68
2023/04/26 10:55:05;;;;;;;9.07;4.15;;;;;;;12.04;43.18;101701.31;3594654;39;20047;-68
2023/04/26 10:57:49;;;;;;;7.82;3.38;;;;;;;12.04;43.82;101700.44;3595015;39;20305;-68
2023/04/26 11:00:27;;;;;;;7.70;3.47;;;;;;;12.00;43.96;101688.09;3592997;39;21197;-67
2023/04/26 11:03:02;;;;;;;7.38;3.00;;;;;;;12.02;42.90;101705.03;3595179;39;20377;-67
2023/04/26 11:05:36;;;;;;;8.95;3.55;;;;;;;11.92;43.63;101701.97;3592956;39;20059;-68
2023/04/26 11:08:24;;;;;;;6.20;3.28;;;;;;;11.92;45.63;101698.41;3593912;39;20055;-68
2023/04/26 11:11:12;;;;;;;7.15;3.63;;;;;;;11.95;45.04;101691.00;3595105;39;20047;-68
2023/04/26 11:13:42;;;;;;;5.80;3.50;;;;;;;12.09;44.82;101698.38;3592928;39;20071;-70
2023/04/26 11:16:10;;;;;;;5.43;3.25;;;;;;;12.13;44.73;101694.56;3594536;39;20083;-68
2023/04/26 11:18:43;;;;;;;6.53;3.50;;;;;;;12.26;43.63;101695.63;3592588;39;20395;-69
2023/04/26 11:21:11;;;;;;;6.57;3.97;;;;;;;12.28;44.21;101650.59;3587420;39;20050;-69
2023/04/26 11:23:37;;;;;;;6.25;3.20;;;;;;;12.71;42.04;101685.91;3591565;39;20072;-69
2023/04/26 11:26:08;;;;;;;5.97;3.83;;;;;;;12.89;43.57;101688.50;3591206;39;20127;-68
2023/04/26 11:28:38;;;;;;;6.60;3.20;;;;;;;12.92;40.29;101688.34;3595242;39;20078;-69
2023/04/26 11:31:06;;;;;;;5.00;3.05;;;;;;;12.66;39.95;101636.75;3591564;39;20132;-69